createdAt,value
2018-03-24T00:01:34.080Z,5.20
2018-03-24T00:04:01.627Z,5.10
2018-03-24T00:06:29.047Z,5.00
2018-03-24T00:08:56.767Z,4.90
2018-03-24T00:11:24.201Z,4.80
2018-03-24T00:13:51.740Z,4.70
2018-03-24T00:16:19.215Z,4.60
2018-03-24T00:18:46.625Z,4.70
2018-03-24T00:21:14.057Z,4.70
2018-03-24T00:23:41.492Z,4.70
2018-03-24T00:26:09.020Z,4.70
2018-03-24T00:28:36.650Z,4.70
2018-03-24T00:31:04.151Z,4.70
2018-03-24T00:33:31.599Z,4.70
2018-03-24T00:35:59.048Z,4.60
2018-03-24T00:38:26.632Z,4.60
2018-03-24T00:40:54.287Z,4.60
2018-03-24T00:43:21.724Z,4.60
2018-03-24T00:45:49.188Z,4.60
2018-03-24T00:48:16.627Z,4.60
2018-03-24T00:50:44.048Z,4.60
2018-03-24T00:53:12.272Z,4.60
2018-03-24T00:55:39.865Z,4.60
2018-03-24T00:58:07.369Z,4.60
2018-03-24T01:00:34.799Z,4.50
2018-03-24T01:03:02.216Z,4.50
2018-03-24T01:05:29.759Z,4.50
2018-03-24T01:07:57.199Z,4.50
2018-03-24T01:10:24.645Z,4.40
2018-03-24T01:12:52.089Z,4.40
2018-03-24T01:15:19.681Z,4.50
2018-03-24T01:17:47.137Z,4.50
2018-03-24T01:20:14.582Z,4.60
2018-03-24T01:22:42.008Z,4.60
2018-03-24T01:25:09.445Z,4.60
2018-03-24T01:27:36.956Z,4.60
2018-03-24T01:30:04.390Z,4.60
2018-03-24T01:32:31.812Z,4.50
2018-03-24T01:34:59.328Z,4.40
2018-03-24T01:37:26.840Z,4.40
2018-03-24T01:39:54.552Z,4.40
2018-03-24T01:42:21.978Z,4.40
2018-03-24T01:44:49.395Z,4.40
2018-03-24T01:47:17.721Z,4.50
2018-03-24T01:49:45.800Z,4.50
2018-03-24T01:52:13.368Z,4.50
2018-03-24T01:54:41.124Z,4.50
2018-03-24T01:57:08.560Z,4.50
2018-03-24T01:59:35.988Z,4.40
2018-03-24T02:02:03.422Z,4.40
2018-03-24T02:04:31.868Z,4.40
2018-03-24T02:06:59.303Z,4.30
2018-03-24T02:09:26.789Z,4.40
2018-03-24T02:11:54.615Z,4.30
2018-03-24T02:14:22.317Z,4.30
2018-03-24T02:16:49.956Z,4.30
2018-03-24T02:19:17.449Z,4.30
2018-03-24T02:21:44.878Z,4.30
2018-03-24T02:24:12.388Z,4.20
2018-03-24T02:26:39.901Z,4.20
2018-03-24T02:29:07.354Z,4.20
2018-03-24T02:31:34.984Z,4.20
2018-03-24T02:34:02.580Z,4.20
2018-03-24T02:36:30.006Z,4.20
2018-03-24T02:38:57.437Z,4.20
2018-03-24T02:41:24.870Z,4.20
2018-03-24T02:43:52.396Z,4.20
2018-03-24T02:46:19.868Z,4.10
2018-03-24T02:48:47.319Z,4.10
2018-03-24T02:51:14.773Z,4.10
2018-03-24T02:53:42.536Z,4.10
2018-03-24T02:56:10.190Z,4.00
2018-03-24T02:58:37.756Z,4.00
2018-03-24T03:01:05.197Z,4.00
2018-03-24T03:03:32.641Z,4.00
2018-03-24T03:06:00.121Z,4.00
2018-03-24T03:08:27.580Z,4.00
2018-03-24T03:10:55.343Z,3.90
2018-03-24T03:13:22.988Z,3.90
2018-03-24T03:15:50.564Z,3.90
2018-03-24T03:18:18.204Z,3.80
2018-03-24T03:20:45.680Z,3.80
2018-03-24T03:23:13.244Z,3.80
2018-03-24T03:25:40.686Z,3.80
2018-03-24T03:28:08.152Z,3.80
2018-03-24T03:30:40.396Z,3.70
2018-03-24T03:33:07.894Z,3.70
2018-03-24T03:35:35.436Z,3.60
2018-03-24T03:38:03.060Z,3.70
2018-03-24T03:40:30.495Z,3.60
2018-03-24T03:42:58.113Z,3.70
2018-03-24T03:45:25.751Z,3.70
2018-03-24T03:47:53.236Z,3.70
2018-03-24T03:50:20.788Z,3.70
2018-03-24T03:52:48.218Z,3.70
2018-03-24T03:55:15.648Z,3.70
2018-03-24T03:57:43.064Z,3.70
2018-03-24T04:00:10.500Z,3.70
2018-03-24T04:02:38.064Z,3.70
2018-03-24T04:05:05.528Z,3.70
2018-03-24T04:07:33.291Z,3.70
2018-03-24T04:10:00.924Z,3.70
2018-03-24T04:12:28.376Z,3.70
2018-03-24T04:14:55.969Z,3.70
2018-03-24T04:17:23.425Z,3.70
2018-03-24T04:19:51.069Z,3.60
2018-03-24T04:22:18.639Z,3.60
2018-03-24T04:24:46.071Z,3.60
2018-03-24T04:27:13.503Z,3.50
2018-03-24T04:29:41.109Z,3.50
2018-03-24T04:32:08.780Z,3.50
2018-03-24T04:34:36.221Z,3.40
2018-03-24T04:37:03.684Z,3.40
2018-03-24T04:39:31.115Z,3.40
2018-03-24T04:41:58.548Z,3.40
2018-03-24T04:44:26.056Z,3.40
2018-03-24T04:46:53.513Z,3.30
2018-03-24T04:49:21.048Z,3.30
2018-03-24T04:51:48.737Z,3.30
2018-03-24T04:54:16.164Z,3.30
2018-03-24T04:56:43.644Z,3.30
2018-03-24T04:59:11.092Z,3.20
2018-03-24T05:01:38.562Z,3.20
2018-03-24T05:04:06.315Z,3.20
2018-03-24T05:06:33.748Z,3.20
2018-03-24T05:09:01.189Z,3.20
2018-03-24T05:11:28.688Z,3.20
2018-03-24T05:13:56.147Z,3.20
2018-03-24T05:16:23.599Z,3.10
2018-03-24T05:18:51.240Z,3.20
2018-03-24T05:21:18.721Z,3.10
2018-03-24T05:23:46.161Z,3.10
2018-03-24T05:26:14.061Z,3.10
2018-03-24T05:28:41.485Z,3.10
2018-03-24T05:31:08.925Z,3.20
2018-03-24T05:33:36.407Z,3.10
2018-03-24T05:36:03.844Z,3.10
2018-03-24T05:38:31.325Z,3.10
2018-03-24T05:40:58.780Z,3.20
2018-03-24T05:43:26.212Z,3.10
2018-03-24T05:45:53.696Z,3.10
2018-03-24T05:48:21.141Z,3.10
2018-03-24T05:50:48.575Z,3.10
2018-03-24T05:53:16.052Z,3.10
2018-03-24T05:55:43.484Z,3.10
2018-03-24T05:58:10.973Z,3.20
2018-03-24T06:00:38.607Z,3.20
2018-03-24T06:03:06.195Z,3.20
2018-03-24T06:05:33.638Z,3.10
2018-03-24T06:08:01.068Z,3.10
2018-03-24T06:10:28.500Z,3.10
2018-03-24T06:12:56.004Z,3.10
2018-03-24T06:15:23.441Z,3.10
2018-03-24T06:17:50.876Z,3.10
2018-03-24T06:20:18.390Z,3.20
2018-03-24T06:22:45.816Z,3.20
2018-03-24T06:25:13.296Z,3.20
2018-03-24T06:27:40.756Z,3.20
2018-03-24T06:30:08.172Z,3.10
2018-03-24T06:32:35.615Z,3.10
2018-03-24T06:35:03.024Z,3.20
2018-03-24T06:37:30.523Z,3.20
2018-03-24T06:39:57.944Z,3.20
2018-03-24T06:42:25.487Z,3.30
2018-03-24T06:44:53.152Z,3.30
2018-03-24T06:47:20.616Z,3.40
2018-03-24T06:49:48.049Z,3.40
2018-03-24T06:52:15.616Z,3.50
2018-03-24T06:54:43.040Z,3.50
2018-03-24T06:57:10.476Z,3.50
2018-03-24T06:59:37.900Z,3.60
2018-03-24T07:02:05.444Z,3.60
2018-03-24T07:04:32.877Z,3.60
2018-03-24T07:07:00.308Z,3.60
2018-03-24T07:09:27.871Z,3.70
2018-03-24T07:11:55.580Z,3.80
2018-03-24T07:14:23.017Z,3.80
2018-03-24T07:16:50.461Z,3.80
2018-03-24T07:19:17.888Z,3.90
2018-03-24T07:21:45.409Z,3.90
2018-03-24T07:24:13.172Z,3.90
2018-03-24T07:26:40.608Z,4.00
2018-03-24T07:29:08.045Z,4.00
2018-03-24T07:31:35.545Z,4.00
2018-03-24T07:34:02.991Z,4.10
2018-03-24T07:36:30.453Z,4.20
2018-03-24T07:38:57.883Z,4.30
2018-03-24T07:41:25.364Z,4.40
2018-03-24T07:43:53.481Z,4.40
2018-03-24T07:46:21.113Z,4.50
2018-03-24T07:48:48.557Z,4.60
2018-03-24T07:51:16.312Z,4.70
2018-03-24T07:53:43.918Z,4.80
2018-03-24T07:56:11.636Z,4.80
2018-03-24T07:58:39.080Z,4.90
2018-03-24T08:01:06.521Z,5.00
2018-03-24T08:03:33.956Z,5.10
2018-03-24T08:06:01.384Z,5.20
2018-03-24T08:08:28.820Z,5.20
2018-03-24T08:10:56.289Z,5.30
2018-03-24T08:13:23.828Z,5.30
2018-03-24T08:15:51.270Z,5.40
2018-03-24T08:18:18.693Z,5.50
2018-03-24T08:20:46.136Z,5.60
2018-03-24T08:23:13.557Z,5.70
2018-03-24T08:25:40.998Z,5.80
2018-03-24T08:28:08.464Z,5.90
2018-03-24T08:30:35.925Z,6.00
2018-03-24T08:33:03.476Z,6.10
2018-03-24T08:35:30.925Z,6.20
2018-03-24T08:37:58.368Z,6.30
2018-03-24T08:40:26.573Z,6.60
2018-03-24T08:42:54.224Z,6.60
2018-03-24T08:45:21.774Z,6.70
2018-03-24T08:47:49.464Z,6.80
2018-03-24T08:50:17.200Z,6.80
2018-03-24T08:52:44.646Z,7.00
2018-03-24T08:55:12.080Z,7.10
2018-03-24T08:57:39.519Z,7.20
2018-03-24T09:00:07.034Z,7.40
2018-03-24T09:02:34.488Z,7.50
2018-03-24T09:05:02.254Z,7.60
2018-03-24T09:07:29.692Z,7.80
2018-03-24T09:09:57.129Z,8.00
2018-03-24T09:12:24.572Z,8.20
2018-03-24T09:14:52.076Z,8.30
2018-03-24T09:17:19.537Z,8.40
2018-03-24T09:19:47.165Z,8.60
2018-03-24T09:22:14.636Z,8.70
2018-03-24T09:24:42.213Z,8.90
2018-03-24T09:27:09.657Z,9.00
2018-03-24T09:29:37.096Z,9.10
2018-03-24T09:32:04.589Z,9.30
2018-03-24T09:34:32.220Z,9.40
2018-03-24T09:36:59.817Z,9.60
2018-03-24T09:39:27.580Z,9.80
2018-03-24T09:41:55.333Z,9.90
2018-03-24T09:44:22.775Z,10.00
2018-03-24T09:46:50.195Z,9.90
2018-03-24T09:49:17.646Z,10.00
2018-03-24T09:51:45.157Z,10.20
2018-03-24T09:54:12.803Z,10.30
2018-03-24T09:56:40.223Z,10.20
2018-03-24T09:59:08.432Z,10.60
2018-03-24T10:01:35.872Z,10.60
2018-03-24T10:04:03.292Z,10.70
2018-03-24T10:06:30.732Z,10.90
2018-03-24T10:08:58.155Z,11.00
2018-03-24T10:11:25.633Z,11.10
2018-03-24T10:13:53.178Z,11.30
2018-03-24T10:16:20.740Z,11.50
2018-03-24T10:18:48.420Z,11.60
2018-03-24T10:24:16.812Z,12.00
2018-03-24T10:26:44.424Z,12.20
2018-03-24T10:29:12.013Z,12.40
2018-03-24T10:31:39.458Z,12.60
2018-03-24T10:34:06.904Z,12.90
2018-03-24T10:36:34.380Z,13.00
2018-03-24T10:39:02.139Z,13.10
2018-03-24T10:41:29.630Z,13.10
2018-03-24T10:43:57.016Z,13.10
2018-03-24T10:46:24.452Z,13.10
2018-03-24T10:48:51.888Z,13.10
2018-03-24T10:51:19.440Z,12.90
2018-03-24T10:53:46.881Z,12.80
2018-03-24T10:56:14.304Z,12.90
2018-03-24T10:58:41.731Z,13.00
2018-03-24T11:01:13.958Z,13.00
2018-03-24T11:03:41.624Z,13.00
2018-03-24T11:06:09.068Z,13.00
2018-03-24T11:08:36.544Z,13.00
2018-03-24T11:11:04.300Z,13.10
2018-03-24T11:13:31.736Z,13.00
2018-03-24T11:15:59.192Z,13.00
2018-03-24T11:18:26.678Z,13.10
2018-03-24T11:20:54.221Z,13.20
2018-03-24T11:23:21.664Z,13.30
2018-03-24T11:25:49.347Z,13.40
2018-03-24T11:28:16.796Z,13.60
2018-03-24T11:30:44.441Z,13.90
2018-03-24T11:33:11.911Z,14.30
2018-03-24T11:35:39.393Z,14.60
2018-03-24T11:38:06.835Z,14.90
2018-03-24T11:40:34.397Z,15.10
2018-03-24T11:43:01.861Z,15.40
2018-03-24T11:45:29.617Z,15.60
2018-03-24T11:47:57.252Z,15.90
2018-03-24T11:50:24.830Z,16.10
2018-03-24T11:52:52.266Z,16.40
2018-03-24T11:55:19.688Z,16.70
2018-03-24T11:57:47.193Z,16.90
2018-03-24T12:00:14.611Z,17.20
2018-03-24T12:02:42.037Z,17.40
2018-03-24T12:05:09.464Z,17.80
2018-03-24T12:07:37.020Z,18.30
2018-03-24T12:10:04.479Z,18.50
2018-03-24T12:12:31.952Z,18.70
2018-03-24T12:14:59.696Z,18.70
2018-03-24T12:17:27.124Z,18.90
2018-03-24T12:19:54.548Z,18.90
2018-03-24T12:22:21.964Z,18.90
2018-03-24T12:24:49.432Z,18.80
2018-03-24T12:27:16.856Z,18.70
2018-03-24T12:29:44.371Z,18.60
2018-03-24T12:32:11.904Z,18.40
2018-03-24T12:34:39.347Z,18.20
2018-03-24T12:37:06.763Z,18.10
2018-03-24T12:39:34.259Z,18.00
2018-03-24T12:42:01.677Z,17.60
2018-03-24T12:44:29.172Z,17.60
2018-03-24T12:46:56.628Z,17.60
2018-03-24T12:49:24.069Z,17.50
2018-03-24T12:51:51.480Z,17.60
2018-03-24T12:54:18.913Z,17.50
2018-03-24T12:56:46.453Z,18.00
2018-03-24T12:59:13.921Z,18.10
2018-03-24T13:01:41.345Z,18.30
2018-03-24T13:04:08.832Z,18.50
2018-03-24T13:06:36.237Z,19.10
2018-03-24T13:09:03.622Z,19.70
2018-03-24T13:11:32.113Z,20.70
2018-03-24T13:13:59.545Z,20.70
2018-03-24T13:16:26.960Z,21.10
2018-03-24T13:18:54.482Z,21.40
2018-03-24T13:21:22.246Z,21.50
2018-03-24T13:23:49.708Z,21.40
2018-03-24T13:26:17.140Z,21.20
2018-03-24T13:28:44.607Z,21.00
2018-03-24T13:31:12.024Z,20.90
2018-03-24T13:33:39.448Z,21.00
2018-03-24T13:36:06.977Z,21.00
2018-03-24T13:38:34.431Z,20.70
2018-03-24T13:41:01.862Z,20.50
2018-03-24T13:43:29.285Z,20.10
2018-03-24T13:45:56.720Z,19.80
2018-03-24T13:48:24.192Z,19.30
2018-03-24T13:50:51.627Z,19.00
2018-03-24T13:53:19.092Z,18.80
2018-03-24T13:55:46.640Z,18.50
2018-03-24T13:58:14.097Z,18.30
2018-03-24T14:00:41.539Z,18.20
2018-03-24T14:03:09.000Z,18.00
2018-03-24T14:05:36.655Z,17.70
2018-03-24T14:08:05.017Z,17.40
2018-03-24T14:10:32.583Z,17.30
2018-03-24T14:13:00.053Z,17.30
2018-03-24T14:15:27.526Z,17.30
2018-03-24T14:17:54.946Z,17.40
2018-03-24T14:20:22.429Z,17.30
2018-03-24T14:22:50.191Z,17.20
2018-03-24T14:25:17.640Z,17.10
2018-03-24T14:27:45.100Z,17.00
2018-03-24T14:30:12.552Z,16.90
2018-03-24T14:32:40.008Z,16.70
2018-03-24T14:35:07.429Z,16.70
2018-03-24T14:37:34.924Z,16.60
2018-03-24T14:40:02.388Z,16.50
2018-03-24T14:42:29.836Z,16.40
2018-03-24T14:44:57.295Z,16.30
2018-03-24T14:47:24.737Z,16.20
2018-03-24T14:49:52.207Z,16.10
2018-03-24T14:52:19.641Z,16.00
2018-03-24T14:54:47.061Z,15.80
2018-03-24T14:57:14.491Z,15.70
2018-03-24T14:59:41.960Z,15.70
2018-03-24T15:02:09.395Z,15.60
2018-03-24T15:04:36.880Z,15.40
2018-03-24T15:07:04.304Z,15.50
2018-03-24T15:09:31.796Z,15.50
2018-03-24T15:11:59.334Z,15.70
2018-03-24T15:14:26.760Z,17.20
2018-03-24T15:16:54.167Z,18.30
2018-03-24T15:19:21.695Z,18.50
2018-03-24T15:21:49.156Z,18.40
2018-03-24T15:24:16.780Z,18.10
2018-03-24T15:26:44.249Z,17.70
2018-03-24T15:29:23.463Z,17.50
2018-03-24T15:32:02.925Z,17.10
2018-03-24T15:34:42.184Z,16.90
2018-03-24T15:37:09.722Z,16.60
2018-03-24T15:39:37.163Z,16.50
2018-03-24T15:42:04.572Z,17.30
2018-03-24T15:44:32.810Z,20.50
2018-03-24T15:47:00.252Z,20.50
2018-03-24T15:49:27.688Z,22.80
2018-03-24T15:51:55.169Z,24.70
2018-03-24T15:54:22.620Z,26.20
2018-03-24T15:56:50.050Z,27.50
2018-03-24T15:59:17.480Z,28.90
2018-03-24T16:01:44.899Z,30.20
2018-03-24T16:04:12.708Z,31.10
2018-03-24T16:06:40.128Z,31.50
2018-03-24T16:09:07.559Z,32.00
2018-03-24T16:11:34.971Z,32.30
2018-03-24T16:14:03.192Z,32.90
2018-03-24T16:16:30.601Z,32.80
2018-03-24T16:18:58.033Z,33.10
2018-03-24T16:21:25.505Z,32.80
2018-03-24T16:23:52.886Z,32.50
2018-03-24T16:26:20.321Z,31.80
2018-03-24T16:28:48.541Z,31.40
2018-03-24T16:31:15.950Z,31.30
2018-03-24T16:33:43.372Z,31.20
2018-03-24T16:36:10.807Z,30.60
2018-03-24T16:38:38.222Z,30.60
2018-03-24T16:41:06.422Z,30.50
2018-03-24T16:43:33.861Z,30.50
2018-03-24T16:46:02.148Z,29.10
2018-03-24T16:48:29.706Z,29.10
2018-03-24T16:50:57.198Z,28.40
2018-03-24T16:53:24.811Z,27.80
2018-03-24T16:55:53.003Z,27.30
2018-03-24T16:58:20.428Z,27.30
2018-03-24T17:00:47.934Z,26.60
2018-03-24T17:03:15.349Z,25.60
2018-03-24T17:05:42.776Z,24.40
2018-03-24T17:08:10.204Z,23.30
2018-03-24T17:10:37.695Z,22.40
2018-03-24T17:13:07.342Z,21.50
2018-03-24T17:15:34.846Z,20.70
2018-03-24T17:18:02.595Z,20.00
2018-03-24T17:20:30.050Z,19.30
2018-03-24T17:22:57.500Z,18.40
2018-03-24T17:25:24.908Z,17.80
2018-03-24T17:27:52.433Z,17.00
2018-03-24T17:30:19.877Z,16.50
2018-03-24T17:32:47.628Z,16.00
2018-03-24T17:35:15.057Z,15.50
2018-03-24T17:37:42.484Z,15.00
2018-03-24T17:40:10.856Z,14.30
2018-03-24T17:42:38.285Z,14.20
2018-03-24T17:45:05.701Z,13.90
2018-03-24T17:47:33.296Z,13.60
2018-03-24T17:50:00.736Z,13.40
2018-03-24T17:52:28.219Z,13.20
2018-03-24T17:54:55.592Z,13.00
2018-03-24T17:57:23.020Z,12.70
2018-03-24T17:59:50.453Z,12.50
2018-03-24T18:02:18.046Z,12.40
2018-03-24T18:04:45.776Z,12.20
2018-03-24T18:07:13.203Z,12.00
2018-03-24T18:09:40.708Z,11.80
2018-03-24T18:12:08.148Z,11.60
2018-03-24T18:14:35.568Z,11.40
2018-03-24T18:17:03.080Z,11.40
2018-03-24T18:19:30.487Z,11.30
2018-03-24T18:21:57.989Z,11.20
2018-03-24T18:24:25.472Z,11.10
2018-03-24T18:26:53.044Z,11.00
2018-03-24T18:29:21.241Z,10.70
2018-03-24T18:31:48.735Z,10.70
2018-03-24T18:34:16.181Z,10.60
2018-03-24T18:36:43.614Z,10.50
2018-03-24T18:39:11.104Z,10.40
2018-03-24T18:41:38.558Z,10.40
2018-03-24T18:44:05.988Z,10.30
2018-03-24T18:46:33.403Z,10.20
2018-03-24T18:49:01.612Z,9.90
2018-03-24T18:51:29.195Z,9.90
2018-03-24T18:53:56.764Z,9.80
2018-03-24T18:56:24.390Z,9.80
2018-03-24T18:58:52.211Z,9.70
2018-03-24T19:01:20.664Z,9.60
2018-03-24T19:03:48.104Z,9.60
2018-03-24T19:06:15.583Z,9.60
2018-03-24T19:08:43.021Z,9.50
2018-03-24T19:11:11.413Z,9.40
2018-03-24T19:13:39.051Z,9.40
2018-03-24T19:16:06.635Z,9.40
2018-03-24T19:18:35.256Z,9.30
2018-03-24T19:21:02.679Z,9.30
2018-03-24T19:23:30.136Z,9.20
2018-03-24T19:25:57.583Z,9.20
2018-03-24T19:28:25.016Z,9.10
2018-03-24T19:30:52.524Z,9.10
2018-03-24T19:33:19.973Z,9.00
2018-03-24T19:35:47.514Z,9.00
2018-03-24T19:38:14.970Z,9.00
2018-03-24T19:40:42.576Z,8.90
2018-03-24T19:43:10.777Z,8.70
2018-03-24T19:45:38.225Z,8.70
2018-03-24T19:48:06.640Z,8.70
2018-03-24T19:50:34.403Z,8.70
2018-03-24T19:53:02.026Z,8.70
2018-03-24T19:55:29.611Z,8.70
2018-03-24T19:57:57.377Z,8.60
2018-03-24T20:00:24.808Z,8.60
2018-03-24T20:02:52.233Z,8.60
2018-03-24T20:05:19.677Z,8.50
2018-03-24T20:07:47.215Z,8.50
2018-03-24T20:10:14.656Z,8.50
2018-03-24T20:12:42.088Z,8.40
2018-03-24T20:15:09.542Z,8.30
2018-03-24T20:17:36.976Z,8.20
2018-03-24T20:20:04.685Z,8.20
2018-03-24T20:22:32.142Z,8.20
2018-03-24T20:24:59.592Z,8.20
2018-03-24T20:27:27.159Z,8.10
2018-03-24T20:29:54.794Z,8.00
2018-03-24T20:32:22.388Z,7.90
2018-03-24T20:34:49.843Z,7.80
2018-03-24T20:37:17.285Z,7.70
2018-03-24T20:39:44.758Z,7.70
2018-03-24T20:42:12.522Z,7.60
2018-03-24T20:44:39.983Z,7.60
2018-03-24T20:47:07.408Z,7.50
2018-03-24T20:49:34.891Z,7.40
2018-03-24T20:52:02.524Z,7.40
2018-03-24T20:54:29.995Z,7.40
2018-03-24T20:56:57.500Z,7.40
2018-03-24T20:59:24.992Z,7.30
2018-03-24T21:01:52.430Z,7.30
2018-03-24T21:04:19.856Z,7.20
2018-03-24T21:06:47.700Z,7.20
2018-03-24T21:09:15.120Z,7.10
2018-03-24T21:11:42.568Z,7.00
2018-03-24T21:14:10.084Z,7.00
2018-03-24T21:16:39.228Z,7.00
2018-03-24T21:19:06.732Z,7.00
2018-03-24T21:21:34.271Z,7.00
2018-03-24T21:24:01.928Z,6.80
2018-03-24T21:26:29.387Z,6.70
2018-03-24T21:28:56.839Z,6.60
2018-03-24T21:31:24.300Z,6.50
2018-03-24T21:33:51.740Z,6.50
2018-03-24T21:36:19.224Z,6.30
2018-03-24T21:38:46.705Z,6.20
2018-03-24T21:41:14.228Z,6.10
2018-03-24T21:43:41.660Z,5.90
2018-03-24T21:46:09.174Z,5.80
2018-03-24T21:48:36.918Z,5.70
2018-03-24T21:51:04.554Z,5.70
2018-03-24T21:53:32.031Z,5.70
2018-03-24T21:55:59.466Z,5.70
2018-03-24T21:58:26.958Z,5.60
2018-03-24T22:00:54.407Z,5.60
2018-03-24T22:03:21.962Z,5.60
2018-03-24T22:05:49.605Z,5.50
2018-03-24T22:08:17.178Z,5.50
2018-03-24T22:10:44.609Z,5.30
2018-03-24T22:13:12.092Z,5.30
2018-03-24T22:15:39.854Z,5.30
2018-03-24T22:18:07.483Z,5.20
2018-03-24T22:20:35.092Z,5.10
2018-03-24T22:23:02.514Z,5.10
2018-03-24T22:25:29.978Z,5.10
2018-03-24T22:27:57.392Z,5.00
2018-03-24T22:30:25.595Z,5.00
2018-03-24T22:32:53.021Z,5.00
2018-03-24T22:35:20.746Z,5.00
2018-03-24T22:37:48.352Z,5.00
2018-03-24T22:40:15.833Z,5.00
2018-03-24T22:42:43.316Z,5.00
2018-03-24T22:45:10.873Z,5.00
2018-03-24T22:47:38.624Z,4.90
2018-03-24T22:50:06.244Z,4.80
2018-03-24T22:52:34.770Z,4.80
2018-03-24T22:55:02.401Z,4.80
2018-03-24T22:57:29.901Z,4.70
2018-03-24T22:59:57.327Z,4.60
2018-03-24T23:02:24.893Z,4.60
2018-03-24T23:04:52.303Z,4.50
2018-03-24T23:07:19.743Z,4.50
2018-03-24T23:09:47.158Z,4.50
2018-03-24T23:12:14.632Z,4.50
2018-03-24T23:14:42.175Z,4.50
2018-03-24T23:17:09.612Z,4.40
2018-03-24T23:19:37.095Z,4.30
2018-03-24T23:22:04.557Z,4.40
2018-03-24T23:24:32.172Z,4.50
2018-03-24T23:26:59.595Z,4.50
2018-03-24T23:29:27.225Z,4.50
2018-03-24T23:31:54.674Z,4.50
2018-03-24T23:34:22.157Z,4.40
2018-03-24T23:36:49.524Z,4.20
2018-03-24T23:39:17.842Z,4.30
2018-03-24T23:41:45.293Z,4.30
2018-03-24T23:44:12.725Z,4.20
2018-03-24T23:46:40.957Z,4.00
2018-03-24T23:49:08.393Z,4.00
2018-03-24T23:51:35.855Z,4.00
2018-03-24T23:54:03.287Z,3.90
2018-03-24T23:56:30.708Z,3.90
2018-03-24T23:58:58.241Z,3.80
